| time (UTC) | temp C | wind direction | speed KPH | gust KPH | rain 1hr cm | rain 24hr cm | rain mn cm | humidity % | barometer mb |
| 20260503212002 | 24 | 250 | 1.6 | 6.4 | 0.00 | 0.00 | 0.00 | 50 | 1012.3 |
| 20260503211503 | 25 | 234 | 1.6 | 6.4 | 0.00 | 0.00 | 0.00 | 52 | 1012.3 |
| 20260503211005 | 25 | 276 | 1.6 | 8.0 | 0.00 | 0.00 | 0.00 | 54 | 1012.4 |
| 20260503210503 | 23 | 187 | 3.2 | 8.0 | 0.00 | 0.00 | 0.00 | 53 | 1012.4 |
| 20260503210005 | 23 | 178 | 1.6 | 8.0 | 0.00 | 0.00 | 0.00 | 55 | 1012.5 |
| 20260503205503 | 24 | 248 | 1.6 | 8.0 | 0.00 | 0.00 | 0.00 | 53 | 1012.6 |
| 20260503205003 | 24 | 221 | 3.2 | 8.0 | 0.00 | 0.00 | 0.00 | 52 | 1012.6 |
| 20260503204507 | 24 | 269 | 1.6 | 8.0 | 0.00 | 0.00 | 0.00 | 54 | 1012.7 |
| 20260503204002 | 24 | 260 | 3.2 | 6.4 | 0.00 | 0.00 | 0.00 | 52 | 1012.7 |
| 20260503203502 | 24 | 279 | 1.6 | 8.0 | 0.00 | 0.00 | 0.00 | 53 | 1012.7 |
| 20260503203010 | 24 | 220 | 3.2 | 8.0 | 0.00 | 0.00 | 0.00 | 56 | 1012.7 |
| 20260503202503 | 23 | 245 | 3.2 | 8.0 | 0.00 | 0.00 | 0.00 | 51 | 1012.7 |
| 20260503202003 | 23 | 238 | 1.6 | 8.0 | 0.00 | 0.00 | 0.00 | 53 | 1012.8 |
| 20260503201506 | 23 | 289 | 1.6 | 8.0 | 0.00 | 0.00 | 0.00 | 53 | 1012.8 |
| 20260503201002 | 23 | 257 | 1.6 | 8.0 | 0.00 | 0.00 | 0.00 | 53 | 1012.8 |
| 20260503200502 | 23 | 193 | 1.6 | 9.7 | 0.00 | 0.00 | 0.00 | 53 | 1012.9 |
| 20260503200010 | 23 | 219 | 1.6 | 9.7 | 0.00 | 0.00 | 0.00 | 52 | 1012.9 |
| 20260503195502 | 23 | 161 | 3.2 | 6.4 | 0.00 | 0.00 | 0.00 | 52 | 1013.1 |
| 20260503195002 | 23 | 168 | 1.6 | 9.7 | 0.00 | 0.00 | 0.00 | 52 | 1013.2 |
| 20260503194508 | 23 | 342 | 3.2 | 9.7 | 0.00 | 0.00 | 0.00 | 53 | 1013.2 |
| 20260503194004 | 23 | 349 | 3.2 | 8.0 | 0.00 | 0.00 | 0.00 | 51 | 1013.4 |
| 20260503193502 | 24 | 252 | 3.2 | 8.0 | 0.00 | 0.00 | 0.00 | 55 | 1013.3 |
| 20260503193021 | 23 | 320 | 1.6 | 6.4 | 0.00 | 0.00 | 0.00 | 53 | 1013.4 |
| 20260503192501 | 23 | 258 | 3.2 | 6.4 | 0.00 | 0.00 | 0.00 | 53 | 1013.4 |
| 20260503192003 | 23 | 233 | 1.6 | 6.4 | 0.00 | 0.00 | 0.00 | 57 | 1013.4 |
| 20260503191513 | 23 | 180 | 1.6 | 6.4 | 0.00 | 0.00 | 0.00 | 57 | 1013.4 |
| 20260503191003 | 23 | 255 | 1.6 | 6.4 | 0.00 | 0.00 | 0.00 | 54 | 1013.3 |
| 20260503190501 | 23 | 231 | 1.6 | 6.4 | 0.00 | 0.00 | 0.00 | 55 | 1013.4 |
| 20260503190014 | 22 | 245 | 3.2 | 4.8 | 0.00 | 0.00 | 0.00 | 55 | 1013.5 |
| 20260503185502 | 22 | 272 | 0.0 | 4.8 | 0.00 | 0.00 | 0.00 | 57 | 1013.5 |
| 20260503185002 | 22 | 340 | 0.0 | 6.4 | 0.00 | 0.00 | 0.00 | 57 | 1013.5 |
| 20260503184508 | 22 | 271 | 1.6 | 6.4 | 0.00 | 0.00 | 0.00 | 57 | 1013.5 |
| 20260503184003 | 22 | 338 | 1.6 | 4.8 | 0.00 | 0.00 | 0.00 | 58 | 1013.6 |
| 20260503183505 | 22 | 251 | 1.6 | 6.4 | 0.00 | 0.00 | 0.00 | 57 | 1013.7 |
| 20260503183009 | 22 | 330 | 1.6 | 6.4 | 0.00 | 0.00 | 0.00 | 60 | 1013.8 |
| 20260503182502 | 21 | 191 | 1.6 | 4.8 | 0.00 | 0.00 | 0.00 | 61 | 1013.8 |
| 20260503182004 | 21 | 193 | 1.6 | 4.8 | 0.00 | 0.00 | 0.00 | 64 | 1013.8 |
| 20260503181507 | 20 | 360 | 1.6 | 6.4 | 0.00 | 0.00 | 0.00 | 61 | 1013.8 |
| 20260503181003 | 20 | 262 | 3.2 | 6.4 | 0.00 | 0.00 | 0.00 | 62 | 1013.9 |
| 20260503180502 | 20 | 133 | 1.6 | 6.4 | 0.00 | 0.00 | 0.00 | 62 | 1014.0 |
| 20260503180011 | 20 | 248 | 3.2 | 6.4 | 0.00 | 0.00 | 0.00 | 61 | 1014.0 |
| 20260503175502 | 20 | 273 | 1.6 | 4.8 | 0.00 | 0.00 | 0.00 | 65 | 1014.2 |
| 20260503175002 | 20 | 212 | 0.0 | 6.4 | 0.00 | 0.00 | 0.00 | 64 | 1014.3 |
| 20260503174503 | 20 | 248 | 0.0 | 6.4 | 0.00 | 0.00 | 0.00 | 65 | 1014.4 |
| 20260503174003 | 19 | 247 | 1.6 | 4.8 | 0.00 | 0.00 | 0.00 | 64 | 1014.4 |
| 20260503173503 | 19 | 191 | 1.6 | 4.8 | 0.00 | 0.00 | 0.00 | 63 | 1014.4 |
| 20260503173007 | 20 | 337 | 0.0 | 4.8 | 0.00 | 0.00 | 0.00 | 66 | 1014.5 |
| 20260503172502 | 19 | 328 | 0.0 | 4.8 | 0.00 | 0.00 | 0.00 | 65 | 1014.5 |
| 20260503172002 | 19 | 342 | 1.6 | 4.8 | 0.00 | 0.00 | 0.00 | 64 | 1014.6 |
| 20260503171508 | 18 | 249 | 0.0 | 3.2 | 0.00 | 0.00 | 0.00 | 66 | 1014.7 |
| 20260503171002 | 18 | 250 | 0.0 | 3.2 | 0.00 | 0.00 | 0.00 | 65 | 1014.7 |
| 20260503170502 | 18 | 245 | 0.0 | 3.2 | 0.00 | 0.00 | 0.00 | 67 | 1014.6 |
| 20260503151007 | 13 | 359 | 0.0 | 6.4 | 0.00 | 0.00 | 0.00 | 79 | 1015.1 |
| 20260503150503 | 13 | 323 | 0.0 | 6.4 | 0.00 | 0.00 | 0.00 | 79 | 1015.1 |
| 20260503131011 | 10 | 103 | 0.0 | 0.0 | 0.00 | 0.00 | 0.00 | 91 | 1014.7 |
| 20260503130504 | 10 | 103 | 0.0 | 0.0 | 0.00 | 0.00 | 0.00 | 91 | 1014.7 |
| 20260503110507 | 11 | 103 | 0.0 | 0.0 | 0.00 | 0.00 | 0.00 | 89 | 1014.9 |
| 20260503090507 | 12 | 100 | 0.0 | 0.0 | 0.00 | 0.00 | 0.00 | 81 | 1015.0 |
| 20260503081534 | 12 | 69 | 0.0 | 1.6 | 0.00 | 0.00 | 0.00 | 77 | 1015.0 |
| 20260503081008 | 12 | 69 | 0.0 | 1.6 | 0.00 | 0.00 | 0.00 | 76 | 1015.0 |
| 20260503080510 | 12 | 28 | 0.0 | 0.0 | 0.00 | 0.00 | 0.00 | 75 | 1015.1 |
| 20260503072512 | 13 | 28 | 0.0 | 0.0 | 0.00 | 0.00 | 0.00 | 74 | 1014.9 |
| 20260503072006 | 13 | 28 | 0.0 | 0.0 | 0.00 | 0.00 | 0.00 | 74 | 1014.9 |
| 20260503071529 | 13 | 28 | 0.0 | 0.0 | 0.00 | 0.00 | 0.00 | 73 | 1014.9 |
| 20260503071011 | 13 | 28 | 0.0 | 0.0 | 0.00 | 0.00 | 0.00 | 73 | 1014.9 |
| 20260503070514 | 13 | 28 | 0.0 | 0.0 | 0.00 | 0.00 | 0.00 | 73 | 1014.9 |
| 20260503055003 | 15 | 28 | 0.0 | 0.0 | 0.00 | 0.00 | 0.00 | 67 | 1014.6 |
| 20260503054512 | 15 | 28 | 0.0 | 0.0 | 0.00 | 0.00 | 0.00 | 66 | 1014.7 |
| 20260503054008 | 15 | 28 | 0.0 | 0.0 | 0.00 | 0.00 | 0.00 | 64 | 1014.7 |
| 20260503053504 | 16 | 28 | 0.0 | 0.0 | 0.00 | 0.00 | 0.00 | 63 | 1014.7 |
| 20260503053004 | 16 | 28 | 0.0 | 0.0 | 0.00 | 0.00 | 0.00 | 62 | 1014.8 |
| 20260503052502 | 16 | 6 | 0.0 | 0.0 | 0.00 | 0.00 | 0.00 | 62 | 1014.8 |
| 20260503052004 | 16 | 6 | 0.0 | 0.0 | 0.00 | 0.00 | 0.00 | 62 | 1014.7 |
| 20260503051503 | 16 | 347 | 0.0 | 3.2 | 0.00 | 0.00 | 0.00 | 61 | 1014.7 |
| 20260503051003 | 16 | 336 | 0.0 | 3.2 | 0.00 | 0.00 | 0.00 | 62 | 1014.6 |
| 20260503050503 | 16 | 336 | 0.0 | 1.6 | 0.00 | 0.00 | 0.00 | 61 | 1014.6 |
| 20260503050005 | 16 | 336 | 0.0 | 4.8 | 0.00 | 0.00 | 0.00 | 61 | 1014.5 |
| 20260503045505 | 16 | 336 | 0.0 | 4.8 | 0.00 | 0.00 | 0.00 | 61 | 1014.5 |
| 20260503045005 | 16 | 359 | 0.0 | 3.2 | 0.00 | 0.00 | 0.00 | 60 | 1014.5 |
| 20260503044513 | 16 | 311 | 0.0 | 3.2 | 0.00 | 0.00 | 0.00 | 60 | 1014.4 |
| 20260503044004 | 17 | 356 | 0.0 | 3.2 | 0.00 | 0.00 | 0.00 | 60 | 1014.3 |
| 20260503043505 | 17 | 359 | 0.0 | 3.2 | 0.00 | 0.00 | 0.00 | 59 | 1014.3 |
| 20260503043017 | 17 | 342 | 0.0 | 4.8 | 0.00 | 0.00 | 0.00 | 59 | 1014.3 |
| 20260503042508 | 17 | 342 | 0.0 | 4.8 | 0.00 | 0.00 | 0.00 | 59 | 1014.1 |
| 20260503042008 | 17 | 335 | 0.0 | 3.2 | 0.00 | 0.00 | 0.00 | 58 | 1014.1 |
| 20260503041507 | 17 | 307 | 0.0 | 3.2 | 0.00 | 0.00 | 0.00 | 57 | 1014.0 |
| 20260503041002 | 17 | 325 | 0.0 | 3.2 | 0.00 | 0.00 | 0.00 | 57 | 1014.1 |
| 20260503040507 | 17 | 346 | 0.0 | 3.2 | 0.00 | 0.00 | 0.00 | 57 | 1014.0 |
| 20260503040006 | 17 | 348 | 0.0 | 3.2 | 0.00 | 0.00 | 0.00 | 56 | 1013.9 |
| 20260503035502 | 17 | 316 | 0.0 | 1.6 | 0.00 | 0.00 | 0.00 | 56 | 1013.8 |
| 20260503035003 | 18 | 324 | 0.0 | 3.2 | 0.00 | 0.00 | 0.00 | 55 | 1013.7 |
| 20260503034506 | 18 | 324 | 0.0 | 3.2 | 0.00 | 0.00 | 0.00 | 55 | 1013.7 |
| 20260503034003 | 18 | 324 | 0.0 | 3.2 | 0.00 | 0.00 | 0.00 | 55 | 1013.6 |
| 20260503033503 | 18 | 360 | 0.0 | 3.2 | 0.00 | 0.00 | 0.00 | 54 | 1013.6 |
| 20260503033012 | 18 | 360 | 0.0 | 3.2 | 0.00 | 0.00 | 0.00 | 54 | 1013.5 |
| 20260503032507 | 18 | 324 | 0.0 | 4.8 | 0.00 | 0.00 | 0.00 | 53 | 1013.5 |
| 20260503032007 | 18 | 334 | 0.0 | 4.8 | 0.00 | 0.00 | 0.00 | 53 | 1013.4 |
| 20260503031518 | 19 | 322 | 0.0 | 3.2 | 0.00 | 0.00 | 0.00 | 52 | 1013.3 |
| 20260503031007 | 19 | 331 | 0.0 | 3.2 | 0.00 | 0.00 | 0.00 | 52 | 1013.3 |
| 20260503030503 | 19 | 330 | 0.0 | 3.2 | 0.00 | 0.00 | 0.00 | 51 | 1013.3 |
| 20260503030003 | 20 | 326 | 0.0 | 3.2 | 0.00 | 0.00 | 0.00 | 50 | 1013.2 |
| 20260503025503 | 20 | 323 | 0.0 | 3.2 | 0.00 | 0.00 | 0.00 | 50 | 1013.2 |
| 20260503025003 | 20 | 337 | 0.0 | 3.2 | 0.00 | 0.00 | 0.00 | 50 | 1013.2 |
| 20260503024508 | 20 | 346 | 0.0 | 4.8 | 0.00 | 0.00 | 0.00 | 48 | 1013.2 |
| 20260503024002 | 20 | 329 | 1.6 | 4.8 | 0.00 | 0.00 | 0.00 | 48 | 1013.2 |
| 20260503023503 | 20 | 321 | 1.6 | 3.2 | 0.00 | 0.00 | 0.00 | 48 | 1013.1 |
| 20260503023010 | 20 | 324 | 0.0 | 4.8 | 0.00 | 0.00 | 0.00 | 48 | 1013.2 |
| 20260503022503 | 20 | 2 | 1.6 | 6.4 | 0.00 | 0.00 | 0.00 | 47 | 1013.1 |
| 20260503022003 | 20 | 23 | 1.6 | 6.4 | 0.00 | 0.00 | 0.00 | 46 | 1013.2 |
| 20260503021520 | 20 | 340 | 1.6 | 8.0 | 0.00 | 0.00 | 0.00 | 46 | 1013.2 |
| 20260503021006 | 21 | 338 | 1.6 | 8.0 | 0.00 | 0.00 | 0.00 | 46 | 1013.2 |
| 20260503020508 | 21 | 333 | 1.6 | 8.0 | 0.00 | 0.00 | 0.00 | 46 | 1013.2 |
| 20260503020020 | 21 | 316 | 1.6 | 11.3 | 0.00 | 0.00 | 0.00 | 46 | 1013.2 |
| 20260503015510 | 21 | 342 | 1.6 | 11.3 | 0.00 | 0.00 | 0.00 | 45 | 1013.2 |
| 20260503015002 | 21 | 328 | 1.6 | 8.0 | 0.00 | 0.00 | 0.00 | 45 | 1013.4 |
| 20260503014504 | 21 | 341 | 1.6 | 8.0 | 0.00 | 0.00 | 0.00 | 44 | 1013.3 |
| 20260503014004 | 21 | 305 | 1.6 | 9.7 | 0.00 | 0.00 | 0.00 | 43 | 1013.3 |
| 20260503013503 | 21 | 359 | 1.6 | 9.7 | 0.00 | 0.00 | 0.00 | 44 | 1013.4 |
| 20260503013017 | 21 | 1 | 1.6 | 9.7 | 0.00 | 0.00 | 0.00 | 44 | 1013.4 |
| 20260503012502 | 22 | 309 | 1.6 | 8.0 | 0.00 | 0.00 | 0.00 | 44 | 1013.5 |
| 20260503012004 | 22 | 1 | 1.6 | 6.4 | 0.00 | 0.00 | 0.00 | 47 | 1013.4 |
| 20260503011513 | 22 | 1 | 1.6 | 6.4 | 0.00 | 0.00 | 0.00 | 48 | 1013.4 |
| 20260503011004 | 22 | 359 | 1.6 | 8.0 | 0.00 | 0.00 | 0.00 | 48 | 1013.4 |
| 20260503010511 | 22 | 27 | 1.6 | 8.0 | 0.00 | 0.00 | 0.00 | 50 | 1013.4 |
| 20260503010018 | 22 | 269 | 1.6 | 6.4 | 0.00 | 0.00 | 0.00 | 49 | 1013.4 |
| 20260503005508 | 22 | 13 | 1.6 | 6.4 | 0.00 | 0.00 | 0.00 | 50 | 1013.6 |
| 20260503005007 | 22 | 360 | 3.2 | 6.4 | 0.00 | 0.00 | 0.00 | 50 | 1013.5 |
| 20260503004550 | 23 | 1 | 0.0 | 8.0 | 0.00 | 0.00 | 0.00 | 51 | 1013.4 |
| 20260503004012 | 23 | 304 | 1.6 | 8.0 | 0.00 | 0.00 | 0.00 | 51 | 1013.4 |
| 20260503003502 | 23 | 348 | 1.6 | 6.4 | 0.00 | 0.00 | 0.00 | 52 | 1013.4 |
| 20260503003008 | 22 | 20 | 1.6 | 9.7 | 0.00 | 0.00 | 0.00 | 51 | 1013.3 |
| 20260503002503 | 22 | 359 | 1.6 | 12.9 | 0.00 | 0.00 | 0.00 | 52 | 1013.4 |
| 20260503002003 | 22 | 330 | 3.2 | 12.9 | 0.00 | 0.00 | 0.00 | 51 | 1013.4 |
| 20260503001512 | 23 | 1 | 0.0 | 11.3 | 0.00 | 0.00 | 0.00 | 51 | 1013.5 |
| 20260503001003 | 23 | 340 | 1.6 | 4.8 | 0.00 | 0.00 | 0.00 | 51 | 1013.5 |
| 20260503000506 | 23 | 354 | 0.0 | 9.7 | 0.00 | 0.00 | 0.00 | 51 | 1013.5 |
| 20260503000017 | 23 | 355 | 1.6 | 9.7 | 0.00 | 0.00 | 0.00 | 52 | 1013.6 |
| 20260502235507 | 23 | 326 | 1.6 | 12.9 | 0.00 | 0.00 | 0.00 | 51 | 1013.7 |
| 20260502235007 | 23 | 343 | 0.0 | 12.9 | 0.00 | 0.00 | 0.00 | 51 | 1013.8 |
| 20260502234536 | 23 | 359 | 3.2 | 9.7 | 0.00 | 0.00 | 0.00 | 53 | 1013.8 |
| 20260502234009 | 23 | 49 | 3.2 | 9.7 | 0.00 | 0.00 | 0.00 | 53 | 1013.9 |
| 20260502233507 | 23 | 360 | 1.6 | 8.0 | 0.00 | 0.00 | 0.00 | 53 | 1013.9 |
| 20260502233032 | 23 | 344 | 3.2 | 11.3 | 0.00 | 0.00 | 0.00 | 52 | 1014.0 |
| 20260502232507 | 23 | 293 | 1.6 | 11.3 | 0.00 | 0.00 | 0.00 | 52 | 1014.1 |
| 20260502232003 | 23 | 340 | 1.6 | 8.0 | 0.00 | 0.00 | 0.00 | 52 | 1014.1 |
| 20260502231508 | 24 | 13 | 1.6 | 8.0 | 0.00 | 0.00 | 0.00 | 54 | 1014.2 |
| 20260502231003 | 23 | 359 | 0.0 | 8.0 | 0.00 | 0.00 | 0.00 | 54 | 1014.3 |
| 20260502230504 | 23 | 4 | 3.2 | 8.0 | 0.00 | 0.00 | 0.00 | 54 | 1014.3 |
| 20260502230014 | 23 | 318 | 1.6 | 8.0 | 0.00 | 0.00 | 0.00 | 54 | 1014.4 |
| 20260502225506 | 23 | 352 | 1.6 | 4.8 | 0.00 | 0.00 | 0.00 | 54 | 1014.5 |
| 20260502225008 | 23 | 269 | 1.6 | 4.8 | 0.00 | 0.00 | 0.00 | 56 | 1014.5 |
| 20260502224520 | 23 | 354 | 1.6 | 4.8 | 0.00 | 0.00 | 0.00 | 55 | 1014.7 |
| 20260502224011 | 23 | 18 | 0.0 | 4.8 | 0.00 | 0.00 | 0.00 | 55 | 1014.7 |
| 20260502223507 | 23 | 1 | 1.6 | 4.8 | 0.00 | 0.00 | 0.00 | 54 | 1014.8 |
| 20260502223036 | 23 | 36 | 0.0 | 14.5 | 0.00 | 0.00 | 0.00 | 57 | 1014.8 |
| 20260502222508 | 23 | 317 | 3.2 | 14.5 | 0.00 | 0.00 | 0.00 | 57 | 1015.0 |
| 20260502222009 | 23 | 322 | 1.6 | 6.4 | 0.00 | 0.00 | 0.00 | 55 | 1015.0 |
| 20260502221526 | 23 | 32 | 0.0 | 9.7 | 0.00 | 0.00 | 0.00 | 58 | 1014.9 |
| 20260502221005 | 23 | 342 | 1.6 | 11.3 | 0.00 | 0.00 | 0.00 | 56 | 1014.9 |
| 20260502220503 | 23 | 315 | 3.2 | 11.3 | 0.00 | 0.00 | 0.00 | 54 | 1015.0 |
| 20260502220015 | 23 | 301 | 1.6 | 9.7 | 0.00 | 0.00 | 0.00 | 55 | 1015.1 |
| 20260502215506 | 23 | 353 | 1.6 | 4.8 | 0.00 | 0.00 | 0.00 | 57 | 1015.1 |
| 20260502215004 | 23 | 1 | 0.0 | 3.2 | 0.00 | 0.00 | 0.00 | 56 | 1015.1 |
| 20260502214518 | 23 | 4 | 0.0 | 4.8 | 0.00 | 0.00 | 0.00 | 57 | 1015.1 |
| 20260502214008 | 23 | 1 | 1.6 | 6.4 | 0.00 | 0.00 | 0.00 | 56 | 1015.2 |
| 20260502213507 | 23 | 359 | 1.6 | 9.7 | 0.00 | 0.00 | 0.00 | 53 | 1015.2 |
| 20260502213024 | 23 | 344 | 1.6 | 9.7 | 0.00 | 0.00 | 0.00 | 54 | 1015.2 |
| 20260502212507 | 23 | 352 | 3.2 | 8.0 | 0.00 | 0.00 | 0.00 | 51 | 1015.3 |